Time;durP1;ratioP1;P1;durP2;ratioP2;P2;SDS_P1;SDS_P2;PMS_P1;PMS_P2;Temp;Humidity;BMP_temperature;BMP_pressure;BME280_temperature;BME280_humidity;BME280_pressure;Samples;Min_cycle;Max_cycle;Signal;HPM_P1;HPM_P2
2023/03/28 00:01:35;;;;;;;;;;;;;;;23.38;42.39;95555.98;587943;241;68815;-61
2023/03/28 00:04:03;;;;;;;;;;;;;;;23.38;42.33;95561.34;588420;240;68700;-61
2023/03/28 00:06:31;;;;;;;;;;;;;;;23.38;41.43;95572.06;588645;240;63028;-61
2023/03/28 00:08:58;;;;;;;;;;;;;;;23.38;41.88;95572.06;588602;241;66753;-61
2023/03/28 00:11:26;;;;;;;;;;;;;;;23.36;42.79;95577.77;588688;240;68770;-61
2023/03/28 00:13:59;;;;;;;;;;;;;;;23.36;41.73;95585.81;588529;241;65031;-61
2023/03/28 00:16:30;;;;;;;;;;;;;;;23.36;42.69;95588.48;588694;240;68737;-62
2023/03/28 00:19:04;;;;;;;;;;;;;;;23.35;43.10;95591.48;588683;241;68524;-62
2023/03/28 00:21:30;;;;;;;;;;;;;;;23.35;43.43;95594.16;588508;240;65028;-62
2023/03/28 00:24:01;;;;;;;;;;;;;;;23.35;42.69;95588.80;588816;240;66679;-62
2023/03/28 00:26:28;;;;;;;;;;;;;;;23.34;42.63;95596.05;588570;241;70190;-62
2023/03/28 00:28:56;;;;;;;;;;;;;;;23.33;43.04;95594.49;588642;240;64894;-62
2023/03/28 00:31:25;;;;;;;;;;;;;;;23.34;43.38;95597.95;588555;240;68782;-62
2023/03/28 00:33:52;;;;;;;;;;;;;;;23.33;42.91;95599.08;588707;240;66713;-62
2023/03/28 00:36:28;;;;;;;;;;;;;;;23.33;43.19;95601.75;588617;240;65005;-62
2023/03/28 00:38:52;;;;;;;;;;;;;;;23.32;44.52;95606.30;588394;240;68756;-62
2023/03/28 00:41:23;;;;;;;;;;;;;;;23.32;42.03;95594.80;588660;240;68725;-62
2023/03/28 00:43:55;;;;;;;;;;;;;;;23.32;43.83;95608.20;588692;240;65176;-62
2023/03/28 00:46:33;;;;;;;;;;;;;;;23.30;42.87;95605.05;588657;240;68441;-62
2023/03/28 00:49:08;;;;;;;;;;;;;;;23.29;43.66;95614.98;588412;241;66475;-62
2023/03/28 00:51:37;;;;;;;;;;;;;;;23.30;44.62;95610.41;588681;240;63085;-62
2023/03/28 00:54:06;;;;;;;;;;;;;;;23.28;43.74;95605.38;588738;240;66884;-63
2023/03/28 00:56:35;;;;;;;;;;;;;;;23.28;43.46;95618.78;588679;240;66461;-62
2023/03/28 00:59:05;;;;;;;;;;;;;;;23.28;43.05;95626.83;588645;240;64984;-62
2023/03/28 01:01:33;;;;;;;;;;;;;;;23.27;42.59;95627.91;588636;241;68048;-62
2023/03/28 01:04:03;;;;;;;;;;;;;;;23.26;43.19;95627.13;588252;240;47458;-62
2023/03/28 01:06:34;;;;;;;;;;;;;;;23.28;43.74;95623.36;588046;240;65013;-62
2023/03/28 01:09:03;;;;;;;;;;;;;;;23.27;44.95;95625.23;588045;240;68987;-62
2023/03/28 01:11:32;;;;;;;;;;;;;;;23.25;45.07;95630.93;588035;240;68226;-62
2023/03/28 01:14:01;;;;;;;;;;;;;;;23.25;46.00;95638.97;588047;240;62897;-62
2023/03/28 01:16:32;;;;;;;;;;;;;;;23.25;42.18;95644.33;588019;240;66194;-61
2023/03/28 01:19:05;;;;;;;;;;;;;;;23.26;44.69;95643.22;588027;240;69237;-62
2023/03/28 01:21:32;;;;;;;;;;;;;;;23.24;42.79;95640.09;587746;240;65088;-62
2023/03/28 01:24:13;;;;;;;;;;;;;;;23.24;44.19;95648.13;587954;241;68699;-62
2023/03/28 01:26:43;;;;;;;;;;;;;;;23.24;43.04;95644.64;587625;240;68576;-62
2023/03/28 01:29:15;;;;;;;;;;;;;;;23.24;44.10;95656.17;587962;241;62926;-62
2023/03/28 01:32:01;;;;;;;;;;;;;;;23.22;44.18;95661.05;588122;240;65752;-62
2023/03/28 01:34:40;;;;;;;;;;;;;;;23.22;42.59;95673.67;585592;240;49481;-62
2023/03/28 01:37:20;;;;;;;;;;;;;;;23.21;44.14;95667.50;588176;240;63155;-61
2023/03/28 01:39:51;;;;;;;;;;;;;;;23.21;44.08;95678.22;588130;241;46943;-62
2023/03/28 01:42:21;;;;;;;;;;;;;;;23.21;44.76;95680.12;588017;241;51375;-62
2023/03/28 01:44:51;;;;;;;;;;;;;;;23.20;42.42;95681.23;587941;241;65813;-62
2023/03/28 01:47:23;;;;;;;;;;;;;;;23.20;43.15;95690.05;588015;241;68776;-62
2023/03/28 01:49:54;;;;;;;;;;;;;;;23.19;44.70;95691.17;588332;240;68690;-62
2023/03/28 01:52:26;;;;;;;;;;;;;;;23.19;45.46;95699.21;588165;240;65256;-62
2023/03/28 01:54:57;;;;;;;;;;;;;;;23.19;43.65;95707.25;587628;241;68941;-62
2023/03/28 01:57:32;;;;;;;;;;;;;;;23.18;43.53;95705.66;587946;241;68828;-62
2023/03/28 02:00:12;;;;;;;;;;;;;;;23.18;42.92;95723.63;584454;241;63691;-62
2023/03/28 02:03:01;;;;;;;;;;;;;;;23.18;45.06;95726.31;588082;240;50481;-62
2023/03/28 02:05:31;;;;;;;;;;;;;;;23.17;44.21;95733.58;588315;240;48198;-62
2023/03/28 02:08:01;;;;;;;;;;;;;;;23.16;44.62;95721.29;588670;240;65844;-62
2023/03/28 02:10:49;;;;;;;;;;;;;;;23.15;44.01;95721.59;587868;240;40581;-62
2023/03/28 02:13:36;;;;;;;;;;;;;;;23.14;44.12;95715.45;587810;241;45484;-62
2023/03/28 02:16:07;;;;;;;;;;;;;;;23.14;44.00;95726.17;587552;240;47373;-62
2023/03/28 02:18:41;;;;;;;;;;;;;;;23.14;43.29;95717.34;587996;241;47055;-62
2023/03/28 02:21:27;;;;;;;;;;;;;;;23.13;45.98;95716.53;585597;242;52126;-62
2023/03/28 02:23:59;;;;;;;;;;;;;;;23.12;43.26;95727.59;587038;240;43553;-62
2023/03/28 02:26:34;;;;;;;;;;;;;;;23.12;43.42;95723.00;588083;241;48056;-62
2023/03/28 02:29:05;;;;;;;;;;;;;;;23.11;44.06;95724.13;588330;240;48294;-62
2023/03/28 02:31:37;;;;;;;;;;;;;;;23.11;44.51;95718.77;587312;241;47356;-62
2023/03/28 02:34:05;;;;;;;;;;;;;;;23.11;45.60;95721.44;588594;241;68408;-62
2023/03/28 02:36:40;;;;;;;;;;;;;;;23.11;45.19;95734.03;588341;240;68812;-62
2023/03/28 02:39:25;;;;;;;;;;;;;;;23.10;42.93;95735.92;588157;241;64927;-61
2023/03/28 02:42:11;;;;;;;;;;;;;;;23.11;45.88;95734.84;576334;245;70583;-61
2023/03/28 02:44:50;;;;;;;;;;;;;;;23.09;44.16;95749.66;586188;240;68770;-61
2023/03/28 02:47:19;;;;;;;;;;;;;;;23.09;44.65;95755.80;588724;240;65141;-61
2023/03/28 02:49:57;;;;;;;;;;;;;;;23.09;43.88;95755.02;587854;241;68808;-61
2023/03/28 02:52:39;;;;;;;;;;;;;;;23.08;44.04;95748.06;588398;241;68120;-61
2023/03/28 02:55:11;;;;;;;;;;;;;;;23.07;43.93;95752.63;588458;241;65253;-61
2023/03/28 02:57:47;;;;;;;;;;;;;;;23.07;44.09;95741.92;588071;240;48014;-63
2023/03/28 03:00:17;;;;;;;;;;;;;;;23.07;45.11;95747.28;588569;240;68962;-61
2023/03/28 03:02:51;;;;;;;;;;;;;;;23.07;44.35;95754.53;588737;240;62496;-62
2023/03/28 03:05:16;;;;;;;;;;;;;;;23.06;44.58;95756.43;588523;241;66558;-62
2023/03/28 03:07:46;;;;;;;;;;;;;;;23.06;44.33;95745.71;588611;240;68303;-62
2023/03/28 03:10:13;;;;;;;;;;;;;;;23.05;44.70;95741.44;588601;240;64913;-62
2023/03/28 03:12:43;;;;;;;;;;;;;;;23.05;44.89;95760.20;588595;241;50307;-62
2023/03/28 03:15:11;;;;;;;;;;;;;;;23.04;45.13;95764.77;588747;240;68570;-62
2023/03/28 03:17:46;;;;;;;;;;;;;;;23.04;44.33;95764.77;588489;241;45237;-62
2023/03/28 03:20:15;;;;;;;;;;;;;;;23.04;45.24;95767.45;588724;240;68311;-62
2023/03/28 03:22:42;;;;;;;;;;;;;;;23.04;44.80;95767.45;588652;240;69244;-62
2023/03/28 03:25:11;;;;;;;;;;;;;;;23.04;44.63;95766.66;588653;241;62393;-62
2023/03/28 03:27:45;;;;;;;;;;;;;;;23.04;43.69;95769.34;588229;241;49844;-63
2023/03/28 03:30:13;;;;;;;;;;;;;;;23.03;44.84;95773.14;588795;240;68585;-63
2023/03/28 03:32:45;;;;;;;;;;;;;;;23.03;46.16;95773.14;585687;241;46358;-63
2023/03/28 03:35:13;;;;;;;;;;;;;;;23.02;46.25;95766.97;588579;241;69186;-60
2023/03/28 03:37:40;;;;;;;;;;;;;;;23.02;45.73;95776.91;588222;240;68504;-60
2023/03/28 03:40:08;;;;;;;;;;;;;;;23.01;44.99;95764.62;588605;241;65172;-60
2023/03/28 03:42:38;;;;;;;;;;;;;;;23.02;45.21;95771.55;588678;240;66272;-60
2023/03/28 03:45:06;;;;;;;;;;;;;;;22.99;42.82;95783.67;588685;240;68554;-60
2023/03/28 03:47:34;;;;;;;;;;;;;;;22.99;45.47;95786.35;588621;240;65767;-60
2023/03/28 03:50:02;;;;;;;;;;;;;;;23.00;44.63;95790.62;588587;240;66392;-63
2023/03/28 03:52:31;;;;;;;;;;;;;;;22.99;45.07;95793.61;588536;240;48077;-63
2023/03/28 03:54:58;;;;;;;;;;;;;;;22.99;46.10;95804.33;588644;240;65083;-63
2023/03/28 03:57:26;;;;;;;;;;;;;;;22.98;44.79;95782.11;588685;240;69098;-63
2023/03/28 03:59:56;;;;;;;;;;;;;;;22.98;43.82;95786.69;588591;240;46523;-60
2023/03/28 04:02:25;;;;;;;;;;;;;;;22.97;45.92;95796.62;588674;240;64122;-60
2023/03/28 04:04:58;;;;;;;;;;;;;;;22.98;44.22;95802.76;588500;240;45761;-62
2023/03/28 04:07:28;;;;;;;;;;;;;;;22.98;46.01;95808.90;584939;240;48106;-62
2023/03/28 04:09:56;;;;;;;;;;;;;;;22.98;46.33;95826.88;588615;240;65841;-62
2023/03/28 04:12:25;;;;;;;;;;;;;;;22.97;43.75;95822.59;588738;240;47037;-62
2023/03/28 04:14:54;;;;;;;;;;;;;;;22.97;43.98;95827.95;588684;240;50329;-62
2023/03/28 04:17:40;;;;;;;;;;;;;;;22.96;45.16;95837.88;588725;240;46106;-63
2023/03/28 04:20:12;;;;;;;;;;;;;;;22.95;45.50;95849.69;588554;241;47020;-62
2023/03/28 04:23:00;;;;;;;;;;;;;;;22.95;44.05;95843.55;588345;241;50609;-63
2023/03/28 04:25:30;;;;;;;;;;;;;;;22.94;45.13;95847.30;588638;240;64639;-63
2023/03/28 04:28:00;;;;;;;;;;;;;;;22.95;45.98;95846.22;588476;240;48404;-62
2023/03/28 04:30:30;;;;;;;;;;;;;;;22.94;46.13;95844.63;588764;240;45490;-63
2023/03/28 04:33:00;;;;;;;;;;;;;;;22.95;47.09;95851.58;580669;240;43782;-63
2023/03/28 04:35:28;;;;;;;;;;;;;;;22.95;45.13;95873.02;588506;241;68439;-63
2023/03/28 04:37:57;;;;;;;;;;;;;;;22.94;44.88;95888.27;587887;240;66134;-63
2023/03/28 04:40:26;;;;;;;;;;;;;;;22.94;43.67;95880.23;587710;241;63024;-63
2023/03/28 04:43:11;;;;;;;;;;;;;;;22.95;44.54;95884.52;578926;244;48520;-63
2023/03/28 04:45:40;;;;;;;;;;;;;;;22.95;43.20;95886.41;582732;241;44743;-61
2023/03/28 04:48:10;;;;;;;;;;;;;;;22.95;44.00;95884.52;588418;240;45023;-62
2023/03/28 04:50:39;;;;;;;;;;;;;;;22.96;43.91;95886.11;588527;240;68361;-62
2023/03/28 04:53:06;;;;;;;;;;;;;;;22.96;45.78;95896.83;588699;240;68680;-62
2023/03/28 04:55:35;;;;;;;;;;;;;;;22.97;42.19;95903.78;588655;241;65268;-62
2023/03/28 04:58:05;;;;;;;;;;;;;;;22.98;43.38;95904.56;588460;240;47833;-62
2023/03/28 05:00:32;;;;;;;;;;;;;;;22.99;46.22;95906.14;588650;240;68660;-62
2023/03/28 05:03:06;;;;;;;;;;;;;;;22.99;43.13;95906.14;588659;241;46468;-63
2023/03/28 05:05:35;;;;;;;;;;;;;;;23.00;45.44;95902.38;588452;241;45682;-62
2023/03/28 05:08:03;;;;;;;;;;;;;;;22.99;43.88;95912.28;588651;241;66061;-62
2023/03/28 05:10:31;;;;;;;;;;;;;;;23.01;44.93;95915.45;588690;240;65517;-62
2023/03/28 05:13:00;;;;;;;;;;;;;;;23.01;44.64;95926.16;588583;241;47182;-62
2023/03/28 05:15:29;;;;;;;;;;;;;;;23.03;45.04;95923.19;588619;241;67112;-62
2023/03/28 05:18:01;;;;;;;;;;;;;;;23.04;47.15;95927.44;588226;241;42390;-62
2023/03/28 05:20:33;;;;;;;;;;;;;;;23.04;45.85;95930.12;588643;241;47164;-62
2023/03/28 05:23:01;;;;;;;;;;;;;;;23.04;42.96;95940.83;588711;240;67975;-62
2023/03/28 05:25:29;;;;;;;;;;;;;;;23.07;45.10;95937.53;585458;240;62640;-62
2023/03/28 05:27:57;;;;;;;;;;;;;;;23.09;43.79;95942.59;588399;241;68240;-62
2023/03/28 05:30:25;;;;;;;;;;;;;;;23.10;44.68;95944.16;588091;240;69425;-62
2023/03/28 05:32:54;;;;;;;;;;;;;;;23.11;44.69;95948.41;588356;241;47232;-62
2023/03/28 05:35:22;;;;;;;;;;;;;;;23.11;48.00;95951.09;587667;241;68348;-62
2023/03/28 05:37:50;;;;;;;;;;;;;;;23.12;45.18;95950.01;584593;242;68821;-62
2023/03/28 05:40:17;;;;;;;;;;;;;;;23.12;45.39;95950.80;587156;241;65119;-62
2023/03/28 05:42:45;;;;;;;;;;;;;;;23.14;47.44;95962.00;588724;240;65860;-62
2023/03/28 05:45:15;;;;;;;;;;;;;;;23.16;48.68;95967.03;588625;240;53498;-62
2023/03/28 05:47:54;;;;;;;;;;;;;;;23.17;47.75;95965.95;584835;240;45081;-61
2023/03/28 05:50:22;;;;;;;;;;;;;;;23.17;47.06;95972.09;588717;241;65676;-62
2023/03/28 05:52:50;;;;;;;;;;;;;;;23.18;48.87;95975.56;588627;240;68872;-61
2023/03/28 05:55:18;;;;;;;;;;;;;;;23.18;44.41;95970.98;588544;241;65288;-62
2023/03/28 05:57:45;;;;;;;;;;;;;;;23.21;47.22;95966.90;588619;240;68698;-62
2023/03/28 06:00:14;;;;;;;;;;;;;;;23.21;47.02;95966.90;588668;241;65975;-63
2023/03/28 06:02:53;;;;;;;;;;;;;;;23.24;44.77;95966.27;587905;240;65801;-63
2023/03/28 06:05:22;;;;;;;;;;;;;;;23.29;42.07;95978.75;588390;241;45615;-62
2023/03/28 06:07:51;;;;;;;;;;;;;;;23.30;40.89;95980.33;588640;241;69067;-61
2023/03/28 06:10:19;;;;;;;;;;;;;;;23.35;39.39;95980.19;583334;240;62699;-62
2023/03/28 06:12:51;;;;;;;;;;;;;;;23.34;38.79;95976.72;588105;239;45303;-62
2023/03/28 06:15:18;;;;;;;;;;;;;;;23.33;41.47;95996.59;588511;241;68680;-62
2023/03/28 06:17:47;;;;;;;;;;;;;;;23.31;43.96;95990.75;588195;241;62492;-63
2023/03/28 06:20:16;;;;;;;;;;;;;;;23.31;39.67;96004.16;588736;241;67285;-63
2023/03/28 06:22:45;;;;;;;;;;;;;;;23.34;38.99;96006.21;588508;241;69192;-61
2023/03/28 06:25:12;;;;;;;;;;;;;;;23.37;39.77;96002.91;588928;241;65030;-61
2023/03/28 06:27:40;;;;;;;;;;;;;;;23.40;38.58;96010.33;588245;238;69088;-62
2023/03/28 06:30:10;;;;;;;;;;;;;;;23.43;38.96;96016.96;587780;241;65942;-61
2023/03/28 06:32:39;;;;;;;;;;;;;;;23.45;40.30;96020.13;588811;240;43741;-62
2023/03/28 06:35:08;;;;;;;;;;;;;;;23.48;38.89;96039.06;588700;241;66252;-63
2023/03/28 06:37:35;;;;;;;;;;;;;;;23.49;39.18;96048.70;578360;243;66302;-61
2023/03/28 06:40:06;;;;;;;;;;;;;;;23.52;39.18;96033.89;585680;241;46741;-63
2023/03/28 06:42:33;;;;;;;;;;;;;;;23.54;39.49;96049.65;588730;241;68775;-63
2023/03/28 06:45:06;;;;;;;;;;;;;;;23.56;39.37;96047.45;585438;239;50188;-63
2023/03/28 06:47:38;;;;;;;;;;;;;;;23.57;39.58;96049.84;587917;240;45263;-63
2023/03/28 06:50:07;;;;;;;;;;;;;;;23.57;39.91;96057.89;589150;240;67369;-62
2023/03/28 06:52:53;;;;;;;;;;;;;;;23.58;39.62;96054.09;585728;239;39306;-62
2023/03/28 06:55:21;;;;;;;;;;;;;;;23.61;39.90;96047.31;585939;240;62519;-62
2023/03/28 06:57:49;;;;;;;;;;;;;;;23.64;39.93;96060.10;585684;240;66095;-61
2023/03/28 07:00:19;;;;;;;;;;;;;;;23.65;40.10;96046.39;585377;242;51037;-61
2023/03/28 07:02:51;;;;;;;;;;;;;;;23.67;40.15;96065.63;576494;240;46888;-62
2023/03/28 07:05:18;;;;;;;;;;;;;;;23.68;41.19;96072.59;586404;242;68467;-62
2023/03/28 07:07:46;;;;;;;;;;;;;;;23.68;39.50;96064.55;586203;241;66615;-62
2023/03/28 07:10:14;;;;;;;;;;;;;;;23.70;39.69;96081.09;585991;242;65721;-62
2023/03/28 07:12:42;;;;;;;;;;;;;;;23.73;40.51;96078.93;586247;241;69048;-63
2023/03/28 07:15:10;;;;;;;;;;;;;;;23.73;39.65;96082.40;586295;240;68736;-63
2023/03/28 07:17:38;;;;;;;;;;;;;;;23.75;40.84;96082.09;585714;240;62474;-62
2023/03/28 07:20:05;;;;;;;;;;;;;;;23.76;38.89;96078.30;585825;240;66733;-63
2023/03/28 07:22:34;;;;;;;;;;;;;;;23.77;39.38;96080.69;586346;240;68725;-61
2023/03/28 07:25:02;;;;;;;;;;;;;;;23.79;41.52;96078.50;586420;240;65082;-62
2023/03/28 07:27:31;;;;;;;;;;;;;;;23.81;38.54;96083.53;586246;240;69326;-62
2023/03/28 07:29:59;;;;;;;;;;;;;;;23.82;39.43;96090.50;586042;242;68893;-62
2023/03/28 07:32:26;;;;;;;;;;;;;;;23.84;40.29;96097.11;586142;240;65267;-62
2023/03/28 07:34:54;;;;;;;;;;;;;;;23.85;39.63;96108.66;585968;240;68793;-63
2023/03/28 07:37:24;;;;;;;;;;;;;;;23.86;39.01;96086.08;586293;240;45790;-64
2023/03/28 07:39:56;;;;;;;;;;;;;;;23.89;39.16;96107.70;585702;242;46815;-61
2023/03/28 07:42:24;;;;;;;;;;;;;;;;;;586216;242;66316;-61
2023/03/28 07:44:51;;;;;;;;;;;;;;;23.91;40.71;96124.28;586175;241;68743;-62
2023/03/28 07:47:19;;;;;;;;;;;;;;;23.95;38.46;96123.66;586283;240;62862;-64
2023/03/28 07:49:46;;;;;;;;;;;;;;;23.98;38.18;96129.22;586255;241;66349;-63
2023/03/28 07:52:14;;;;;;;;;;;;;;;24.02;39.39;96130.16;586227;239;66454;-64
2023/03/28 07:54:41;;;;;;;;;;;;;;;24.05;38.98;96156.38;586384;241;65218;-62
2023/03/28 07:57:09;;;;;;;;;;;;;;;24.08;39.63;96161.12;585981;242;68859;-63
2023/03/28 07:59:49;;;;;;;;;;;;;;;24.10;40.27;96142.03;581410;241;50443;-63
2023/03/28 08:02:16;;;;;;;;;;;;;;;24.10;38.86;96121.34;585885;242;62680;-62
2023/03/28 08:04:46;;;;;;;;;;;;;;;24.12;37.76;96156.72;586008;241;68710;-62
2023/03/28 08:07:15;;;;;;;;;;;;;;;24.16;38.59;96154.20;586179;242;45823;-63
2023/03/28 08:09:44;;;;;;;;;;;;;;;24.18;40.02;96143.94;586168;240;65077;-63
2023/03/28 08:12:13;;;;;;;;;;;;;;;24.20;38.16;96149.80;585944;242;50047;-62
2023/03/28 08:14:42;;;;;;;;;;;;;;;24.20;38.66;96127.50;586287;241;66219;-63
2023/03/28 08:17:10;;;;;;;;;;;;;;;24.20;41.29;96147.11;586171;242;65211;-62
2023/03/28 08:19:37;;;;;;;;;;;;;;;24.24;40.67;96182.17;586273;240;68551;-62
2023/03/28 08:22:13;;;;;;;;;;;;;;;24.24;39.02;96147.27;586319;241;49558;-62
2023/03/28 08:24:42;;;;;;;;;;;;;;;24.25;40.28;96154.21;586265;240;46063;-63
2023/03/28 08:27:11;;;;;;;;;;;;;;;24.24;39.94;96166.84;585814;239;51355;-63
2023/03/28 08:29:40;;;;;;;;;;;;;;;24.26;39.26;96163.87;585881;241;66274;-63
2023/03/28 08:32:08;;;;;;;;;;;;;;;24.26;39.89;96170.02;585832;241;65870;-63
2023/03/28 08:34:36;;;;;;;;;;;;;;;24.27;38.66;96166.22;586004;240;69269;-62
2023/03/28 08:37:05;;;;;;;;;;;;;;;24.28;39.57;96191.17;586000;240;45746;-63
2023/03/28 08:39:36;;;;;;;;;;;;;;;24.30;41.90;96165.59;586189;240;65185;-63
2023/03/28 08:42:10;;;;;;;;;;;;;;;24.30;39.37;96175.55;585777;240;68725;-63
2023/03/28 08:44:43;;;;;;;;;;;;;;;24.31;41.09;96180.62;585774;242;69290;-62
2023/03/28 08:47:29;;;;;;;;;;;;;;;24.31;40.80;96185.20;585786;242;65028;-63
2023/03/28 08:50:01;;;;;;;;;;;;;;;24.34;40.40;96184.58;585733;240;66602;-63
2023/03/28 08:52:29;;;;;;;;;;;;;;;24.34;40.08;96168.46;592649;238;66171;-63
2023/03/28 08:55:00;;;;;;;;;;;;;;;24.34;38.19;96174.62;593976;238;65190;-63
2023/03/28 08:57:29;;;;;;;;;;;;;;;24.36;42.10;96190.41;594231;238;68580;-62
2023/03/28 08:59:58;;;;;;;;;;;;;;;24.34;41.16;96192.63;594099;238;68736;-64
2023/03/28 09:02:27;;;;;;;;;;;;;;;24.37;40.92;96200.06;594047;238;65703;-64
2023/03/28 09:04:56;;;;;;;;;;;;;;;24.37;39.36;96192.00;594426;238;69061;-63
2023/03/28 09:07:37;;;;;;;;;;;;;;;24.37;40.49;96200.06;594121;238;68608;-63
2023/03/28 09:10:12;;;;;;;;;;;;;;;24.39;38.07;96200.55;594386;238;64959;-63
2023/03/28 09:12:46;;;;;;;;;;;;;;;24.40;41.15;96196.74;594208;238;46126;-63
2023/03/28 09:15:27;;;;;;;;;;;;;;;24.40;39.64;96191.38;594120;238;69429;-64
2023/03/28 09:17:59;;;;;;;;;;;;;;;24.41;38.20;96210.95;594432;238;65296;-64
2023/03/28 09:20:31;;;;;;;;;;;;;;;24.42;41.82;96201.78;594042;238;66397;-62
2023/03/28 09:23:14;;;;;;;;;;;;;;;24.43;40.76;96224.88;593980;238;50390;-64
2023/03/28 09:25:48;;;;;;;;;;;;;;;24.43;40.85;96227.56;587321;238;46164;-63
2023/03/28 09:28:35;;;;;;;;;;;;;;;24.43;42.63;96216.81;594138;238;69331;-65
2023/03/28 09:31:04;;;;;;;;;;;;;;;24.42;41.16;96218.72;594222;238;66361;-63
2023/03/28 09:33:36;;;;;;;;;;;;;;;24.43;40.87;96206.86;594559;238;63784;-64
2023/03/28 09:36:06;;;;;;;;;;;;;;;24.41;38.67;96222.48;594359;238;65761;-63
2023/03/28 09:38:36;;;;;;;;;;;;;;;24.44;38.50;96215.73;594335;238;66329;-61
2023/03/28 09:41:06;;;;;;;;;;;;;;;24.38;37.55;96233.85;594073;238;63013;-62
2023/03/28 09:43:51;;;;;;;;;;;;;;;24.40;37.69;96241.61;594041;238;50905;-61
2023/03/28 09:46:40;;;;;;;;;;;;;;;24.39;37.83;96230.09;587584;237;50622;-64
2023/03/28 09:49:28;;;;;;;;;;;;;;;24.35;37.11;96224.52;586005;238;47574;-64
2023/03/28 09:52:00;;;;;;;;;;;;;;;24.35;38.22;96213.78;589642;238;50765;-64
2023/03/28 09:54:35;;;;;;;;;;;;;;;24.35;38.72;96204.94;586319;240;68495;-64
2023/03/28 09:57:06;;;;;;;;;;;;;;;24.33;37.48;96223.25;586301;241;63195;-64
2023/03/28 09:59:36;;;;;;;;;;;;;;;24.34;39.76;96217.58;585727;240;50864;-64
2023/03/28 10:02:07;;;;;;;;;;;;;;;24.33;39.12;96232.09;586397;240;45839;-64
2023/03/28 10:04:39;;;;;;;;;;;;;;;24.32;37.57;96214.41;586055;240;46353;-64
2023/03/28 10:07:16;;;;;;;;;;;;;;;24.34;37.99;96246.33;586212;240;47526;-64
2023/03/28 10:09:49;;;;;;;;;;;;;;;24.34;37.85;96251.70;585932;240;49633;-64
2023/03/28 10:12:18;;;;;;;;;;;;;;;24.35;38.79;96266.70;585913;240;63746;-63
2023/03/28 10:14:47;;;;;;;;;;;;;;;24.34;37.48;96259.77;585788;240;68862;-62
2023/03/28 10:17:26;;;;;;;;;;;;;;;24.35;38.09;96272.08;577598;241;48576;-63
2023/03/28 10:19:58;;;;;;;;;;;;;;;24.35;38.40;96280.92;585684;241;62432;-63
2023/03/28 10:22:28;;;;;;;;;;;;;;;24.36;37.77;96300.50;585805;242;69603;-63
2023/03/28 10:24:57;;;;;;;;;;;;;;;24.36;37.61;96301.31;585865;241;69095;-63
2023/03/28 10:27:26;;;;;;;;;;;;;;;24.37;37.95;96289.46;586012;240;62708;-63
2023/03/28 10:29:55;;;;;;;;;;;;;;;24.38;38.05;96298.30;586395;240;68857;-63
2023/03/28 10:32:25;;;;;;;;;;;;;;;24.40;38.08;96309.53;586256;241;69010;-63
2023/03/28 10:35:02;;;;;;;;;;;;;;;24.40;39.30;96295.33;585926;242;45207;-62
2023/03/28 10:37:35;;;;;;;;;;;;;;;24.41;37.58;96307.64;585501;240;48529;-62
2023/03/28 10:40:21;;;;;;;;;;;;;;;24.41;37.80;96321.85;580487;241;48629;-61
2023/03/28 10:42:51;;;;;;;;;;;;;;;24.42;37.60;96328.83;575555;240;45009;-61
2023/03/28 10:45:27;;;;;;;;;;;;;;;24.44;37.90;96339.27;585104;240;50249;-61
2023/03/28 10:47:54;;;;;;;;;;;;;;;24.45;38.21;96330.92;586219;240;69129;-62
2023/03/28 10:50:24;;;;;;;;;;;;;;;24.45;37.70;96333.60;586304;240;65144;-63
2023/03/28 10:53:02;;;;;;;;;;;;;;;24.45;37.72;96330.92;585731;240;69276;-62
2023/03/28 10:55:35;;;;;;;;;;;;;;;24.48;37.99;96365.21;585976;242;69314;-62
2023/03/28 10:58:07;;;;;;;;;;;;;;;24.49;38.59;96353.36;582257;241;45080;-63
2023/03/28 11:00:46;;;;;;;;;;;;;;;24.49;37.77;96364.09;586269;242;46232;-63
2023/03/28 11:03:32;;;;;;;;;;;;;;;24.51;37.83;96367.28;586167;241;66169;-62
2023/03/28 11:06:01;;;;;;;;;;;;;;;24.53;38.52;96369.67;586491;241;65175;-63
2023/03/28 11:08:34;;;;;;;;;;;;;;;24.53;37.61;96351.65;586042;241;67463;-62
2023/03/28 11:11:05;;;;;;;;;;;;;;;24.58;37.93;96346.14;586154;242;47482;-63
2023/03/28 11:13:40;;;;;;;;;;;;;;;24.56;37.34;96363.67;585885;242;47429;-62
2023/03/28 11:16:12;;;;;;;;;;;;;;;24.56;37.95;96391.32;586362;241;69568;-63
2023/03/28 11:18:43;;;;;;;;;;;;;;;24.54;38.29;96377.40;585906;241;47289;-64
2023/03/28 11:21:16;;;;;;;;;;;;;;;24.56;38.04;96406.66;586159;241;42492;-63
2023/03/28 11:23:47;;;;;;;;;;;;;;;24.56;38.19;96398.59;585951;241;69246;-63
2023/03/28 11:26:30;;;;;;;;;;;;;;;24.55;40.78;96392.44;585115;242;50620;-63
2023/03/28 11:29:10;;;;;;;;;;;;;;;24.56;37.66;96396.70;585569;241;42495;-64
2023/03/28 11:31:40;;;;;;;;;;;;;;;24.57;37.55;96403.64;586097;242;68837;-60
2023/03/28 11:34:25;;;;;;;;;;;;;;;24.56;39.48;96407.44;586046;241;67317;-62
2023/03/28 11:36:57;;;;;;;;;;;;;;;24.58;38.05;96380.25;586151;241;65153;-61
2023/03/28 11:39:43;;;;;;;;;;;;;;;24.58;39.67;96389.13;586158;241;66722;-63
2023/03/28 11:42:19;;;;;;;;;;;;;;;24.60;41.83;96383.42;586101;242;46468;-62
2023/03/28 11:45:06;;;;;;;;;;;;;;;24.59;38.09;96406.81;585977;242;62902;-62
2023/03/28 11:47:35;;;;;;;;;;;;;;;24.60;37.86;96404.92;580641;243;69028;-63
2023/03/28 11:50:06;;;;;;;;;;;;;;;24.61;36.78;96411.08;580165;243;47214;-63
2023/03/28 11:52:54;;;;;;;;;;;;;;;24.62;36.90;96410.00;583109;241;40084;-63
2023/03/28 11:55:25;;;;;;;;;;;;;;;24.62;39.21;96405.41;580937;242;69080;-63
2023/03/28 11:57:54;;;;;;;;;;;;;;;24.63;39.75;96414.26;586063;241;69251;-63
2023/03/28 12:00:30;;;;;;;;;;;;;;;24.64;37.51;96423.92;585776;242;63106;-63
2023/03/28 12:03:07;;;;;;;;;;;;;;;24.64;36.71;96407.80;586176;239;49885;-63
2023/03/28 12:05:38;;;;;;;;;;;;;;;24.66;39.13;96402.89;585218;240;68149;-63
2023/03/28 12:08:20;;;;;;;;;;;;;;;24.66;40.62;96416.32;585742;241;67604;-63
2023/03/28 12:11:17;;;;;;;;;;;;;;;24.66;40.10;96413.64;585790;242;67708;-62
2023/03/28 12:31:15;;;;;;;;;;;;;;;24.70;38.70;96450.34;570894;248;40361;-62
2023/03/28 12:34:24;;;;;;;;;;;;;;;24.72;38.69;96452.73;555437;255;41711;-64
2023/03/28 12:37:13;;;;;;;;;;;;;;;24.70;40.77;96444.17;555677;248;39771;-64
2023/03/28 12:39:53;;;;;;;;;;;;;;;24.71;39.18;96480.68;580978;242;69434;-64
2023/03/28 12:42:24;;;;;;;;;;;;;;;24.71;41.08;96475.30;585739;240;47255;-64
2023/03/28 12:45:02;;;;;;;;;;;;;;;24.71;38.69;96496.80;585854;241;65721;-64
2023/03/28 12:47:32;;;;;;;;;;;;;;;24.69;41.64;96475.62;585900;240;69308;-62
2023/03/28 12:50:07;;;;;;;;;;;;;;;24.69;38.12;96475.62;585870;242;69586;-64
2023/03/28 12:52:37;;;;;;;;;;;;;;;24.71;41.21;96486.05;592343;238;63861;-63
2023/03/28 12:55:08;;;;;;;;;;;;;;;24.70;37.82;96498.70;593977;238;48506;-64
2023/03/28 12:57:47;;;;;;;;;;;;;;;24.68;41.85;96482.09;594122;238;48400;-63
2023/03/28 13:00:34;;;;;;;;;;;;;;;24.70;40.83;96492.53;594398;238;39800;-63
2023/03/28 13:03:11;;;;;;;;;;;;;;;24.70;41.27;96501.39;593426;238;50882;-64
2023/03/28 13:05:59;;;;;;;;;;;;;;;24.69;39.82;96497.13;594036;238;68458;-63
2023/03/28 13:08:43;;;;;;;;;;;;;;;24.70;38.90;96497.91;594517;238;65253;-64
2023/03/28 13:11:18;;;;;;;;;;;;;;;24.69;41.53;96502.50;594811;238;68869;-62
2023/03/28 13:13:47;;;;;;;;;;;;;;;24.69;39.48;96494.44;594835;238;68959;-63
2023/03/28 13:16:25;;;;;;;;;;;;;;;24.69;41.78;96502.50;594302;238;65294;-60
2023/03/28 13:18:54;;;;;;;;;;;;;;;24.69;39.12;96512.43;594815;238;68978;-63
2023/03/28 13:21:42;;;;;;;;;;;;;;;24.69;39.54;96507.88;591146;238;66678;-63
2023/03/28 13:24:14;;;;;;;;;;;;;;;24.73;38.05;96505.36;594630;238;63186;-62
2023/03/28 13:26:55;;;;;;;;;;;;;;;24.76;37.21;96528.92;587638;238;68820;-64
2023/03/28 13:29:24;;;;;;;;;;;;;;;24.76;37.26;96518.96;594590;238;68688;-64
2023/03/28 13:31:53;;;;;;;;;;;;;;;24.77;38.62;96525.94;593693;238;65169;-64